createdAt,value
2023-01-29T00:02:46.871Z,22.85
2023-01-29T00:05:50.094Z,22.48
2023-01-29T00:08:52.635Z,22.77
2023-01-29T00:11:55.778Z,20.12
2023-01-29T00:14:58.356Z,22.60
2023-01-29T00:18:01.586Z,22.73
2023-01-29T00:21:04.442Z,23.52
2023-01-29T00:24:07.791Z,21.23
2023-01-29T00:27:11.236Z,23.50
2023-01-29T00:30:19.353Z,21.67
2023-01-29T00:33:22.161Z,22.73
2023-01-29T00:36:26.452Z,22.70
2023-01-29T00:39:47.502Z,23.20
2023-01-29T00:43:10.080Z,23.23
2023-01-29T00:46:14.515Z,21.92
2023-01-29T00:49:17.667Z,22.62
2023-01-29T00:52:26.363Z,22.57
2023-01-29T00:55:29.464Z,23.25
2023-01-29T00:58:34.448Z,21.58
2023-01-29T01:01:56.411Z,21.60
2023-01-29T01:04:59.068Z,23.55
2023-01-29T01:08:02.240Z,23.60
2023-01-29T01:11:06.829Z,21.83
2023-01-29T01:14:09.968Z,23.12
2023-01-29T01:17:12.528Z,22.47
2023-01-29T01:20:16.381Z,20.67
2023-01-29T01:26:22.806Z,21.55
2023-01-29T01:29:25.469Z,19.90
2023-01-29T01:32:28.723Z,21.58
2023-01-29T01:35:31.247Z,22.70
2023-01-29T01:38:34.556Z,22.37
2023-01-29T01:41:37.165Z,22.23
2023-01-29T01:48:19.743Z,19.92
2023-01-29T01:51:26.329Z,21.10
2023-01-29T01:54:32.343Z,20.33
2023-01-29T01:57:36.529Z,23.23
2023-01-29T02:04:12.215Z,19.30
2023-01-29T02:07:34.749Z,22.10
2023-01-29T02:10:46.792Z,20.65
2023-01-29T02:13:53.864Z,22.80
2023-01-29T02:17:02.030Z,20.48
2023-01-29T02:23:29.367Z,20.50
2023-01-29T02:26:32.288Z,22.23
2023-01-29T02:29:50.375Z,21.83
2023-01-29T02:33:17.276Z,20.23
2023-01-29T02:36:22.933Z,20.73
2023-01-29T02:39:34.122Z,21.30
2023-01-29T02:42:59.737Z,21.12
2023-01-29T02:46:20.949Z,21.50
2023-01-29T02:49:36.097Z,19.90
2023-01-29T02:52:56.847Z,22.25
2023-01-29T02:56:09.870Z,19.42
2023-01-29T02:59:17.647Z,19.90
2023-01-29T03:02:29.244Z,20.65
2023-01-29T03:05:55.106Z,20.10
2023-01-29T03:09:33.015Z,22.50
2023-01-29T03:12:41.140Z,21.23
2023-01-29T03:15:51.264Z,19.48
2023-01-29T03:19:04.077Z,20.08
2023-01-29T03:22:10.784Z,19.80
2023-01-29T03:25:34.231Z,21.20
2023-01-29T03:28:59.275Z,18.58
2023-01-29T03:32:08.773Z,20.35
2023-01-29T03:35:21.067Z,20.45
2023-01-29T03:38:29.546Z,20.48
2023-01-29T03:41:38.662Z,19.67
2023-01-29T03:44:41.807Z,19.55
2023-01-29T03:48:15.159Z,19.85
2023-01-29T03:51:28.338Z,19.35
2023-01-29T03:54:51.630Z,18.87
2023-01-29T03:58:05.005Z,18.00
2023-01-29T04:01:23.126Z,18.60
2023-01-29T04:04:37.981Z,19.58
2023-01-29T04:07:44.316Z,19.15
2023-01-29T04:10:49.493Z,18.85
2023-01-29T04:13:52.725Z,19.17
2023-01-29T04:17:00.251Z,18.33
2023-01-29T04:20:05.907Z,19.15
2023-01-29T04:23:21.406Z,18.50
2023-01-29T04:26:27.480Z,17.75
2023-01-29T04:29:50.963Z,19.40
2023-01-29T04:33:14.786Z,18.50
2023-01-29T04:36:32.988Z,16.48
2023-01-29T04:39:54.179Z,16.62
2023-01-29T04:43:46.313Z,16.37
2023-01-29T04:47:02.307Z,16.37
2023-01-29T04:50:33.792Z,19.75
2023-01-29T04:53:45.104Z,18.02
2023-01-29T04:56:53.696Z,18.65
2023-01-29T05:00:22.473Z,18.15
2023-01-29T05:03:27.584Z,17.15
2023-01-29T05:06:32.311Z,16.42
2023-01-29T05:09:37.356Z,15.52
2023-01-29T05:12:43.674Z,15.00
2023-01-29T05:15:59.021Z,15.70
2023-01-29T05:19:01.876Z,13.73
2023-01-29T05:22:06.417Z,13.75
2023-01-29T05:25:30.376Z,13.07
2023-01-29T05:31:35.763Z,12.48
2023-01-29T05:34:38.646Z,14.30
2023-01-29T05:37:41.675Z,14.70
2023-01-29T05:40:44.744Z,13.90
2023-01-29T05:43:47.704Z,12.95
2023-01-29T05:46:51.161Z,14.38
2023-01-29T05:49:54.944Z,14.57
2023-01-29T05:52:59.241Z,14.13
2023-01-29T05:56:03.265Z,15.30
2023-01-29T05:59:07.356Z,13.27
2023-01-29T06:02:10.162Z,14.65
2023-01-29T06:05:14.004Z,13.57
2023-01-29T06:08:16.793Z,12.52
2023-01-29T06:11:20.614Z,13.68
2023-01-29T06:14:23.447Z,13.60
2023-01-29T06:17:26.280Z,13.23
2023-01-29T06:20:29.069Z,13.65
2023-01-29T06:23:32.178Z,13.52
2023-01-29T06:26:35.143Z,13.70
2023-01-29T06:29:38.159Z,13.02
2023-01-29T06:32:41.122Z,13.27
2023-01-29T06:35:44.010Z,14.02
2023-01-29T06:38:47.338Z,12.68
2023-01-29T06:41:50.124Z,13.50
2023-01-29T06:44:52.911Z,14.00
2023-01-29T06:47:56.585Z,13.13
2023-01-29T06:51:07.815Z,13.18
2023-01-29T06:54:11.314Z,12.98
2023-01-29T07:00:17.432Z,12.43
2023-01-29T07:03:20.575Z,13.15
2023-01-29T07:06:28.092Z,12.73
2023-01-29T07:09:31.192Z,14.20
2023-01-29T07:12:34.030Z,11.43
2023-01-29T07:15:37.355Z,12.63
2023-01-29T07:18:40.248Z,12.80
2023-01-29T07:21:43.089Z,12.75
2023-01-29T07:24:45.964Z,13.23
2023-01-29T07:27:49.702Z,12.00
2023-01-29T07:30:59.217Z,12.75
2023-01-29T07:34:02.275Z,18.95
2023-01-29T07:37:06.323Z,14.27
2023-01-29T07:40:11.445Z,13.07
2023-01-29T07:43:17.228Z,11.80
2023-01-29T07:46:20.213Z,12.30
2023-01-29T07:49:22.987Z,12.55
2023-01-29T07:52:25.847Z,13.18
2023-01-29T07:55:28.721Z,13.27
2023-01-29T07:58:31.561Z,12.60
2023-01-29T08:01:34.431Z,14.80
2023-01-29T08:04:37.692Z,12.27
2023-01-29T08:07:40.175Z,12.83
2023-01-29T08:10:43.503Z,11.90
2023-01-29T08:13:46.763Z,12.27
2023-01-29T08:16:50.512Z,11.52
2023-01-29T08:19:53.190Z,11.05
2023-01-29T08:23:05.078Z,11.50
2023-01-29T08:26:07.855Z,10.88
2023-01-29T08:29:12.194Z,11.35
2023-01-29T08:32:14.844Z,11.10
2023-01-29T08:35:18.138Z,11.07
2023-01-29T08:38:21.619Z,11.68
2023-01-29T08:41:24.820Z,11.23
2023-01-29T08:44:27.376Z,11.17
2023-01-29T08:47:30.461Z,16.33
2023-01-29T08:50:34.923Z,12.27
2023-01-29T08:53:38.054Z,10.77
2023-01-29T08:56:40.593Z,10.60
2023-01-29T08:59:43.715Z,11.30
2023-01-29T09:02:46.348Z,10.03
2023-01-29T09:05:49.579Z,10.25
2023-01-29T09:08:52.153Z,9.87
2023-01-29T09:11:55.321Z,10.75
2023-01-29T09:14:58.024Z,10.80
2023-01-29T09:18:04.378Z,10.63
2023-01-29T09:21:07.215Z,10.35
2023-01-29T09:24:10.863Z,9.85
2023-01-29T09:27:13.457Z,10.77
2023-01-29T09:30:17.309Z,9.88
2023-01-29T09:33:20.565Z,11.98
2023-01-29T09:36:23.886Z,10.65
2023-01-29T09:39:26.417Z,9.50
2023-01-29T09:42:44.138Z,9.43
2023-01-29T09:46:05.586Z,9.85
2023-01-29T09:49:26.667Z,9.40
2023-01-29T09:52:45.716Z,9.18
2023-01-29T09:56:02.380Z,9.93
2023-01-29T09:59:05.058Z,9.43
2023-01-29T10:02:53.388Z,9.38
2023-01-29T10:06:15.410Z,9.48
2023-01-29T10:09:27.316Z,9.82
2023-01-29T10:12:48.796Z,10.02
2023-01-29T10:16:48.690Z,8.90
2023-01-29T10:20:05.307Z,8.43
2023-01-29T10:23:34.739Z,8.50
2023-01-29T10:26:40.662Z,8.63
2023-01-29T10:29:46.928Z,9.43
2023-01-29T10:32:54.441Z,8.00
2023-01-29T10:36:03.313Z,8.70
2023-01-29T10:39:22.015Z,8.60
2023-01-29T10:42:35.436Z,8.50
2023-01-29T10:45:57.537Z,9.10
2023-01-29T10:49:37.263Z,8.30
2023-01-29T10:53:18.244Z,8.00
2023-01-29T10:56:30.069Z,7.78
2023-01-29T11:00:12.834Z,8.38
2023-01-29T11:03:28.612Z,8.07
2023-01-29T11:06:36.901Z,7.95
2023-01-29T11:10:00.624Z,7.45
2023-01-29T11:13:05.419Z,8.18
2023-01-29T11:16:09.404Z,7.95
2023-01-29T11:19:13.149Z,8.25
2023-01-29T11:22:20.183Z,8.10
2023-01-29T11:25:24.727Z,8.55
2023-01-29T11:28:41.023Z,7.87
2023-01-29T11:31:44.384Z,9.75
2023-01-29T11:35:16.422Z,10.30
2023-01-29T11:38:24.145Z,9.18
2023-01-29T11:41:27.039Z,9.48
2023-01-29T11:44:39.693Z,8.57
2023-01-29T11:47:42.417Z,8.82
2023-01-29T11:50:52.920Z,8.25
2023-01-29T11:53:58.584Z,7.87
2023-01-29T11:57:03.575Z,8.30
2023-01-29T12:00:31.478Z,8.75
2023-01-29T12:03:43.720Z,8.30
2023-01-29T12:06:52.069Z,8.95
2023-01-29T12:09:58.000Z,8.30
2023-01-29T12:13:22.317Z,8.57
2023-01-29T12:16:32.196Z,7.50
2023-01-29T12:19:47.658Z,7.85
2023-01-29T12:22:58.604Z,7.72
2023-01-29T12:26:07.967Z,8.93
2023-01-29T12:29:32.566Z,7.15
2023-01-29T12:32:42.309Z,7.68
2023-01-29T12:35:54.885Z,8.77
2023-01-29T12:38:59.025Z,7.37
2023-01-29T12:42:09.109Z,7.32
2023-01-29T12:45:19.140Z,7.90
2023-01-29T12:48:31.548Z,7.12
2023-01-29T12:51:40.783Z,7.85
2023-01-29T12:54:53.813Z,8.05
2023-01-29T12:58:13.977Z,7.55
2023-01-29T13:01:32.053Z,7.72
2023-01-29T13:04:43.602Z,6.80
2023-01-29T13:08:06.063Z,6.72
2023-01-29T13:11:27.548Z,7.28
2023-01-29T13:14:52.801Z,6.55
2023-01-29T13:18:11.593Z,7.65
2023-01-29T13:21:40.102Z,7.18
2023-01-29T13:24:47.881Z,7.05
2023-01-29T13:27:53.906Z,7.05
2023-01-29T13:34:28.577Z,6.65
2023-01-29T13:37:34.600Z,6.80
2023-01-29T13:40:38.504Z,6.90
2023-01-29T13:43:43.662Z,7.47
2023-01-29T13:47:24.234Z,6.45
2023-01-29T13:50:41.570Z,7.28
2023-01-29T13:53:54.091Z,7.10
2023-01-29T13:57:01.988Z,6.53
2023-01-29T14:00:06.599Z,7.25
2023-01-29T14:03:11.781Z,7.78
2023-01-29T14:06:40.631Z,8.05
2023-01-29T14:09:43.385Z,7.50
2023-01-29T14:12:47.802Z,7.40
2023-01-29T14:15:56.584Z,7.40
2023-01-29T14:19:02.132Z,7.62
2023-01-29T14:22:18.976Z,7.55
2023-01-29T14:25:28.734Z,7.87
2023-01-29T14:28:33.615Z,7.87
2023-01-29T14:31:39.136Z,8.65
2023-01-29T14:34:49.763Z,8.50
2023-01-29T14:37:57.593Z,7.45
2023-01-29T14:41:07.640Z,7.60
2023-01-29T14:44:44.803Z,7.12
2023-01-29T14:47:47.576Z,6.80
2023-01-29T14:50:52.164Z,7.20
2023-01-29T14:54:02.699Z,7.35
2023-01-29T14:57:13.471Z,7.93
2023-01-29T15:00:24.361Z,7.95
2023-01-29T15:03:40.099Z,7.95
2023-01-29T15:06:57.834Z,7.07
2023-01-29T15:10:22.281Z,7.97
2023-01-29T15:13:36.000Z,7.97
2023-01-29T15:17:06.339Z,8.52
2023-01-29T15:20:33.256Z,7.57
2023-01-29T15:23:36.121Z,7.68
2023-01-29T15:26:43.051Z,8.50
2023-01-29T15:30:03.874Z,8.07
2023-01-29T15:33:10.622Z,8.27
2023-01-29T15:36:29.927Z,8.32
2023-01-29T15:39:42.847Z,8.77
2023-01-29T15:42:48.764Z,8.75
2023-01-29T15:45:55.593Z,8.48
2023-01-29T15:49:05.951Z,8.68
2023-01-29T15:52:19.250Z,9.50
2023-01-29T15:55:24.009Z,9.25
2023-01-29T15:58:32.263Z,9.02
2023-01-29T16:01:38.369Z,8.93
2023-01-29T16:04:41.443Z,8.98
2023-01-29T16:07:45.506Z,9.15
2023-01-29T16:10:53.824Z,10.43
2023-01-29T16:13:57.123Z,9.93
2023-01-29T16:17:25.022Z,9.98
2023-01-29T16:20:35.243Z,9.25
2023-01-29T16:23:48.961Z,10.15
2023-01-29T16:29:56.467Z,10.57
2023-01-29T16:33:08.245Z,10.50
2023-01-29T16:36:19.570Z,10.73
2023-01-29T16:39:25.417Z,10.55
2023-01-29T16:42:30.426Z,11.38
2023-01-29T16:45:33.314Z,10.38
2023-01-29T16:48:36.281Z,9.88
2023-01-29T16:51:39.540Z,10.73
2023-01-29T16:54:44.720Z,10.90
2023-01-29T16:57:55.470Z,10.80
2023-01-29T17:01:09.135Z,10.77
2023-01-29T17:07:21.414Z,10.30
2023-01-29T17:10:26.020Z,10.95
2023-01-29T17:13:36.336Z,11.48
2023-01-29T17:16:55.761Z,10.38
2023-01-29T17:20:09.646Z,11.80
2023-01-29T17:23:12.524Z,10.82
2023-01-29T17:26:15.657Z,11.93
2023-01-29T17:29:20.779Z,12.43
2023-01-29T17:32:25.220Z,12.32
2023-01-29T17:35:48.938Z,11.25
2023-01-29T17:38:52.141Z,11.80
2023-01-29T17:41:57.786Z,12.13
2023-01-29T17:45:00.693Z,11.90
2023-01-29T17:48:03.768Z,11.63
2023-01-29T17:51:10.915Z,11.93
2023-01-29T17:54:13.705Z,12.05
2023-01-29T17:57:16.904Z,12.63
2023-01-29T18:00:24.551Z,12.13
2023-01-29T18:03:27.783Z,11.57
2023-01-29T18:06:31.016Z,11.88
2023-01-29T18:09:34.029Z,12.13
2023-01-29T18:12:36.944Z,12.73
2023-01-29T18:15:40.368Z,11.88
2023-01-29T18:18:43.408Z,13.07
2023-01-29T18:21:46.624Z,12.93
2023-01-29T18:24:49.494Z,13.02
2023-01-29T18:27:52.329Z,12.32
2023-01-29T18:30:55.412Z,12.48
2023-01-29T18:33:58.400Z,12.80
2023-01-29T18:37:01.260Z,11.90
2023-01-29T18:40:05.337Z,12.95
2023-01-29T18:43:08.462Z,11.55
2023-01-29T18:46:11.520Z,12.65
2023-01-29T18:49:14.537Z,12.15
2023-01-29T18:52:18.188Z,11.55
2023-01-29T18:55:24.169Z,11.57
2023-01-29T18:58:35.308Z,11.15
2023-01-29T19:01:40.257Z,13.02
2023-01-29T19:04:43.351Z,11.20
2023-01-29T19:07:46.182Z,11.77
2023-01-29T19:10:49.080Z,12.02
2023-01-29T19:13:51.966Z,10.43
2023-01-29T19:16:56.069Z,11.38
2023-01-29T19:20:02.167Z,10.95
2023-01-29T19:23:05.089Z,11.52
2023-01-29T19:26:09.052Z,10.35
2023-01-29T19:29:17.727Z,13.85
2023-01-29T19:32:20.725Z,17.08
2023-01-29T19:35:23.848Z,11.98
2023-01-29T19:38:27.892Z,12.00
2023-01-29T19:41:31.139Z,11.10
2023-01-29T19:47:41.548Z,11.80
2023-01-29T19:50:58.192Z,11.85
2023-01-29T19:54:02.323Z,12.23
2023-01-29T19:57:06.926Z,13.80
2023-01-29T20:00:15.511Z,13.10
2023-01-29T20:03:18.813Z,11.45
2023-01-29T20:06:28.617Z,11.77
2023-01-29T20:09:31.939Z,12.70
2023-01-29T20:12:34.939Z,14.48
2023-01-29T20:15:38.203Z,12.20
2023-01-29T20:18:40.813Z,12.23
2023-01-29T20:21:46.813Z,11.68
2023-01-29T20:24:49.499Z,11.77
2023-01-29T20:27:52.680Z,11.48
2023-01-29T20:30:56.432Z,11.47
2023-01-29T20:34:00.042Z,11.80
2023-01-29T20:37:03.147Z,12.50
2023-01-29T20:40:06.830Z,12.77
2023-01-29T20:43:09.508Z,13.02
2023-01-29T20:46:13.008Z,11.93
2023-01-29T20:49:17.370Z,11.73
2023-01-29T20:52:20.616Z,12.88
2023-01-29T20:55:23.444Z,12.55
2023-01-29T20:58:26.733Z,12.43
2023-01-29T21:01:29.640Z,13.37
2023-01-29T21:07:36.197Z,11.80
2023-01-29T21:10:39.381Z,15.15
2023-01-29T21:13:43.998Z,15.97
2023-01-29T21:16:47.421Z,13.40
2023-01-29T21:19:50.371Z,13.63
2023-01-29T21:26:04.514Z,13.15
2023-01-29T21:29:07.870Z,14.18
2023-01-29T21:32:11.671Z,14.07
2023-01-29T21:35:18.493Z,13.23
2023-01-29T21:38:22.103Z,13.73
2023-01-29T21:41:45.379Z,12.95
2023-01-29T21:44:47.957Z,14.05
2023-01-29T21:47:51.282Z,14.82
2023-01-29T21:50:53.841Z,13.50
2023-01-29T21:53:57.148Z,14.48
2023-01-29T21:56:59.694Z,14.67
2023-01-29T22:00:03.491Z,13.23
2023-01-29T22:03:06.919Z,14.95
2023-01-29T22:06:10.049Z,13.02
2023-01-29T22:09:13.297Z,14.00
2023-01-29T22:12:17.671Z,13.68
2023-01-29T22:15:22.504Z,14.10
2023-01-29T22:18:27.291Z,16.87
2023-01-29T22:24:33.083Z,14.18
2023-01-29T22:27:36.013Z,13.90
2023-01-29T22:30:39.160Z,13.57
2023-01-29T22:33:42.925Z,13.47
2023-01-29T22:36:46.095Z,14.13
2023-01-29T22:39:48.720Z,15.17
2023-01-29T22:42:51.871Z,15.02
2023-01-29T22:45:54.825Z,14.17
2023-01-29T22:52:12.658Z,13.30
2023-01-29T22:55:15.806Z,13.68
2023-01-29T22:58:18.465Z,14.13
2023-01-29T23:01:24.325Z,13.50
2023-01-29T23:04:26.991Z,14.65
2023-01-29T23:07:30.460Z,14.80
2023-01-29T23:10:33.071Z,13.93
2023-01-29T23:13:36.234Z,14.63
2023-01-29T23:16:38.811Z,13.60
2023-01-29T23:19:42.037Z,13.93
2023-01-29T23:22:44.621Z,12.97
2023-01-29T23:26:06.413Z,13.68
2023-01-29T23:29:09.486Z,13.85
2023-01-29T23:32:18.688Z,12.52
2023-01-29T23:35:21.306Z,14.80
2023-01-29T23:38:24.415Z,13.82
2023-01-29T23:41:27.056Z,14.35
2023-01-29T23:44:30.254Z,13.82
2023-01-29T23:47:32.896Z,13.07
2023-01-29T23:50:36.264Z,14.55
2023-01-29T23:53:38.889Z,14.38
2023-01-29T23:56:42.409Z,13.65
2023-01-29T23:59:44.940Z,14.38
